Matthews, IN (46957)

5:10 AM EDT on July 04, 2015 (GMT -0400)
WB9HLA-1 | | Change Station
CLOSE
Current Station
Personal Weather Station
Location: Hartford City, IN
Elevation: 918 ft
Nearby Weather Stations

Elev 918 ft 40.46 °N, 85.37 °W | Updated 24 minutes ago

Partly Cloudy
Partly Cloudy
58.8 °F
Feels Like 58.8 °F
N
0.0
Wind Variable Wind from East
Gusts 0.0 mph

Today
High -- | Low -- °F
--% Chance of Precip.
Yesterday
High -- | Low -- °F
Precip. -- in
6:17 AM 9:15 PM
Waning Gibbous, 93% visible
Pressure 29.92 in
Visibility 3.0 miles
Clouds Clear
Dew Point 54 °F
Humidity 83%
Rainfall -999.00 in
Snow Depth Not available.
UV 0 out of 12
Pollen 3.70 out of 12
Air Quality Not available.
Flu Activity Not available.
METAR KMIE 040853Z AUTO 00000KT 3SM BR CLR 16/14 A2995 RMK AO2 SLP132 T01560144 51000

More Conditions Fewer Conditions

Pressure 29.92 in
Visibility 3.0 miles
Clouds Clear
Dew Point 54 °F
Humidity 83%
Rainfall -999.00 in
Snow Depth Not available.
UV 0 out of 12
Pollen 3.70 out of 12
Air Quality Not available.
Flu Activity Not available.
METAR KMIE 040853Z AUTO 00000KT 3SM BR CLR 16/14 A2995 RMK AO2 SLP132 T01560144 51000

More Conditions Fewer Conditions

Nowcast | as of 5:09 am EDT on July 4, 2015

Patchy fog is expected across the area early this morning. The fog could limit visibility to around a quarter mile in spots. People driving in the area should use extra caution and be prepared to encounter some dense fog patches early this morning.

×

10-Day Weather Forecast

×

Almanac

Astronomy

Jul. 04, 2015 Rise Set
Actual Time
Civil Twilight
Nautical Twilight
Astronomical Twilight
Moon
Length of Visible Light
Length of Day
Tomorrow will be .
, % of the Moon is Illuminated

Today's Extremes

State Highs State Lows

Community

WunderPhotos

Upload Photos

1,834,931 photos uploaded!

WunderBlogs® & News

Nearby

Air Quality

  Air Quality AQ Index Pollutant
Not available.

Snow Depth

Station Depth Elevation

Earthquake Activity

City Distance Mag. Time & Date
Minimum magnitude displayed is 2.5.

Coastal Water Temperatures

Place Temperature

Stations

Nearby Weather Stations

Station Location Temp. Windchill Dew Point Humidity Wind Precip. Elev Updated Type